createdAt,value
2019-03-06T00:00:08.386Z,5.7
2019-03-06T00:15:09.421Z,5.6
2019-03-06T00:30:09.426Z,5.5
2019-03-06T00:45:09.423Z,5.4
2019-03-06T01:00:09.551Z,5.1
2019-03-06T01:17:20.602Z,4.7
2019-03-06T01:32:21.741Z,4.2
2019-03-06T01:45:12.593Z,3.9
2019-03-06T02:00:12.749Z,3.8
2019-03-06T02:17:23.045Z,3.6
2019-03-06T02:32:13.922Z,3.4
2019-03-06T02:47:13.015Z,3.4
2019-03-06T03:00:03.255Z,3.3
2019-03-06T03:15:04.079Z,3.4
2019-03-06T03:32:14.312Z,3.4
2019-03-06T03:45:04.266Z,3.1
2019-03-06T04:02:14.522Z,2.8
2019-03-06T04:15:04.287Z,2.6
2019-03-06T04:30:04.625Z,2.5
2019-03-06T04:45:04.530Z,2.5
2019-03-06T05:00:04.820Z,2.3
2019-03-06T05:17:15.999Z,2.3
2019-03-06T05:32:17.129Z,2
2019-03-06T05:45:06.199Z,1.9
2019-03-06T06:00:06.123Z,2
2019-03-06T06:15:07.889Z,1.9
2019-03-06T06:30:07.619Z,2
2019-03-06T06:45:08.394Z,2
2019-03-06T07:00:08.478Z,1.9
2019-03-06T07:15:09.014Z,2.1
2019-03-06T07:32:19.937Z,2.2
2019-03-06T07:47:21.069Z,2.7
2019-03-06T08:02:20.158Z,3.3
2019-03-06T08:15:03.339Z,3.7
2019-03-06T08:30:03.491Z,4.4
2019-03-06T08:47:15.298Z,5.2
2019-03-06T09:02:18.471Z,5.9
2019-03-06T09:17:23.662Z,6.3
2019-03-06T09:32:14.608Z,6.8
2019-03-06T09:45:04.625Z,7.5
2019-03-06T10:00:04.869Z,7.9
2019-03-06T10:17:15.898Z,8.3
2019-03-06T10:32:16.993Z,8.9
2019-03-06T10:45:06.968Z,9.5
2019-03-06T11:00:07.490Z,9.8
2019-03-06T11:30:03.975Z,10.4
2019-03-06T11:47:14.386Z,10.5
2019-03-06T12:00:09.670Z,10.9
2019-03-06T12:17:22.789Z,11.3
2019-03-06T12:30:09.178Z,11.6
2019-03-06T12:45:13.055Z,11.8
2019-03-06T13:00:04.683Z,12
2019-03-06T13:17:17.006Z,11.9
2019-03-06T13:32:18.142Z,12.3
2019-03-06T13:45:10.553Z,12.2
2019-03-06T14:00:13.270Z,12.2
2019-03-06T14:17:15.344Z,12.1
2019-03-06T14:30:05.581Z,12
2019-03-06T14:45:07.611Z,11.9
2019-03-06T15:00:03.357Z,11.8
2019-03-06T15:15:08.956Z,11.6
2019-03-06T15:30:10.822Z,11.5
2019-03-06T15:45:11.043Z,11.4
2019-03-06T16:02:21.147Z,10.9
2019-03-06T16:17:22.259Z,10.5
2019-03-06T16:32:15.272Z,10.2
2019-03-06T16:45:06.912Z,9.9
2019-03-06T17:00:07.603Z,9.6
2019-03-06T17:15:09.319Z,9.4
2019-03-06T17:32:15.597Z,9.2
2019-03-06T17:47:18.751Z,8.8
2019-03-06T18:00:17.309Z,8.7
2019-03-06T18:15:10.040Z,8.4
2019-03-06T18:32:11.884Z,8.1
2019-03-06T18:47:15.050Z,7.9
2019-03-06T19:02:18.206Z,7.7
2019-03-06T19:15:10.292Z,7.4
2019-03-06T19:30:03.302Z,7.3
2019-03-06T19:45:07.209Z,6.8
2019-03-06T20:00:08.873Z,6.8
2019-03-06T20:15:09.011Z,6.5
2019-03-06T20:32:18.750Z,6.6
2019-03-06T20:47:19.881Z,6.6
2019-03-06T21:02:18.979Z,6.5
2019-03-06T21:15:09.596Z,6.4
2019-03-06T21:32:19.175Z,6.3
2019-03-06T21:47:20.336Z,6.2
2019-03-06T22:00:10.828Z,6.2
2019-03-06T22:15:05.961Z,6.3
2019-03-06T22:32:15.451Z,6.1
2019-03-06T22:45:04.843Z,5.8
2019-03-06T23:00:04.946Z,5.6
2019-03-06T23:17:14.638Z,5.5
2019-03-06T23:30:05.072Z,5.3
2019-03-06T23:45:05.259Z,5.4
